Terminal Aerodrome Forecast
Issued by NWS Pocatello, ID

Home | Current Version | Previous Version | Text Only | Print | Product List | Glossary On
Versions: 1 2 3 4 5 6 7 8 9 10 11 12 13 14 15 16 17 18 19 20 21 22 23 24 25 26 27 28
447
FTUS45 KPIH 102320
TAFPIH
TAF
KPIH 102320Z 1100/1124 01007KT P6SM FEW004 SCT200
     FM110300 VRB04KT P6SM FEW002 SCT015 BKN130
     FM110900 13007KT P6SM VCFG SCT002 BKN015 BKN100
     FM111300 13007KT 4SM BR SCT002 SCT015 BKN100
     FM112000 VRB05KT P6SM FEW015 BKN120 BKN160=

USA.gov is the U.S. government's official web portal to all federal, state and local government web resources and services.